sensor_id;sensor_type;location;lat;lon;timestamp;P1;durP1;ratioP1;P2;durP2;ratioP2
20114;SDS011;10218;42.874;25.320;2023-02-04T00:01:35;43.90;;;22.53;;
20114;SDS011;10218;42.874;25.320;2023-02-04T00:04:02;45.97;;;23.63;;
20114;SDS011;10218;42.874;25.320;2023-02-04T00:06:29;27.03;;;17.10;;
20114;SDS011;10218;42.874;25.320;2023-02-04T00:08:56;23.20;;;14.27;;
20114;SDS011;10218;42.874;25.320;2023-02-04T00:11:24;21.80;;;12.20;;
20114;SDS011;10218;42.874;25.320;2023-02-04T00:13:51;24.57;;;12.80;;
20114;SDS011;10218;42.874;25.320;2023-02-04T00:16:18;21.70;;;13.67;;
20114;SDS011;10218;42.874;25.320;2023-02-04T00:18:45;25.70;;;12.73;;
20114;SDS011;10218;42.874;25.320;2023-02-04T00:21:12;23.77;;;14.07;;
20114;SDS011;10218;42.874;25.320;2023-02-04T00:23:39;24.43;;;15.03;;
20114;SDS011;10218;42.874;25.320;2023-02-04T00:26:07;24.63;;;14.73;;
20114;SDS011;10218;42.874;25.320;2023-02-04T00:28:34;25.40;;;14.67;;
20114;SDS011;10218;42.874;25.320;2023-02-04T00:31:01;21.37;;;12.40;;
20114;SDS011;10218;42.874;25.320;2023-02-04T00:33:28;27.53;;;14.50;;
20114;SDS011;10218;42.874;25.320;2023-02-04T00:35:55;27.53;;;15.33;;
20114;SDS011;10218;42.874;25.320;2023-02-04T00:38:22;28.33;;;16.87;;
20114;SDS011;10218;42.874;25.320;2023-02-04T00:40:50;31.50;;;17.47;;
20114;SDS011;10218;42.874;25.320;2023-02-04T00:43:17;25.10;;;14.70;;
20114;SDS011;10218;42.874;25.320;2023-02-04T00:45:44;24.77;;;13.20;;
20114;SDS011;10218;42.874;25.320;2023-02-04T00:48:11;23.77;;;13.70;;
20114;SDS011;10218;42.874;25.320;2023-02-04T00:50:38;20.53;;;11.57;;
20114;SDS011;10218;42.874;25.320;2023-02-04T00:53:05;19.93;;;11.03;;
20114;SDS011;10218;42.874;25.320;2023-02-04T00:55:33;15.23;;;8.60;;
20114;SDS011;10218;42.874;25.320;2023-02-04T00:58:00;19.23;;;10.10;;
20114;SDS011;10218;42.874;25.320;2023-02-04T01:00:27;17.90;;;9.70;;
20114;SDS011;10218;42.874;25.320;2023-02-04T01:02:54;13.47;;;8.53;;
20114;SDS011;10218;42.874;25.320;2023-02-04T01:05:21;11.40;;;6.97;;
20114;SDS011;10218;42.874;25.320;2023-02-04T01:07:48;12.10;;;7.23;;
20114;SDS011;10218;42.874;25.320;2023-02-04T01:10:17;12.03;;;7.27;;
20114;SDS011;10218;42.874;25.320;2023-02-04T01:12:44;9.80;;;6.40;;
20114;SDS011;10218;42.874;25.320;2023-02-04T01:15:11;10.53;;;4.97;;
20114;SDS011;10218;42.874;25.320;2023-02-04T01:17:38;9.53;;;5.60;;
20114;SDS011;10218;42.874;25.320;2023-02-04T01:20:07;12.00;;;6.63;;
20114;SDS011;10218;42.874;25.320;2023-02-04T01:22:35;10.27;;;6.07;;
20114;SDS011;10218;42.874;25.320;2023-02-04T01:25:03;11.27;;;5.80;;
20114;SDS011;10218;42.874;25.320;2023-02-04T01:27:37;11.63;;;6.73;;
20114;SDS011;10218;42.874;25.320;2023-02-04T01:30:05;12.73;;;7.23;;
20114;SDS011;10218;42.874;25.320;2023-02-04T01:32:32;10.33;;;6.37;;
20114;SDS011;10218;42.874;25.320;2023-02-04T01:34:59;12.47;;;6.93;;
20114;SDS011;10218;42.874;25.320;2023-02-04T01:37:26;10.40;;;6.33;;
20114;SDS011;10218;42.874;25.320;2023-02-04T01:39:53;10.20;;;6.30;;
20114;SDS011;10218;42.874;25.320;2023-02-04T01:42:20;10.23;;;5.50;;
20114;SDS011;10218;42.874;25.320;2023-02-04T01:44:48;8.30;;;5.33;;
20114;SDS011;10218;42.874;25.320;2023-02-04T01:47:15;10.83;;;6.43;;
20114;SDS011;10218;42.874;25.320;2023-02-04T01:49:42;9.10;;;5.07;;
20114;SDS011;10218;42.874;25.320;2023-02-04T01:52:09;11.67;;;6.23;;
20114;SDS011;10218;42.874;25.320;2023-02-04T01:54:37;10.93;;;6.83;;
20114;SDS011;10218;42.874;25.320;2023-02-04T01:57:05;7.93;;;5.23;;
20114;SDS011;10218;42.874;25.320;2023-02-04T01:59:39;8.80;;;4.87;;
20114;SDS011;10218;42.874;25.320;2023-02-04T02:05:06;9.23;;;5.00;;
20114;SDS011;10218;42.874;25.320;2023-02-04T02:07:35;6.63;;;4.53;;
20114;SDS011;10218;42.874;25.320;2023-02-04T02:10:04;7.33;;;4.60;;
20114;SDS011;10218;42.874;25.320;2023-02-04T02:12:35;6.07;;;4.37;;
20114;SDS011;10218;42.874;25.320;2023-02-04T02:15:02;6.87;;;4.27;;
20114;SDS011;10218;42.874;25.320;2023-02-04T02:17:30;7.07;;;4.10;;
20114;SDS011;10218;42.874;25.320;2023-02-04T02:19:59;8.40;;;4.67;;
20114;SDS011;10218;42.874;25.320;2023-02-04T06:11:51;13.37;;;7.80;;
20114;SDS011;10218;42.874;25.320;2023-02-04T06:14:17;11.47;;;6.63;;
20114;SDS011;10218;42.874;25.320;2023-02-04T06:16:44;18.40;;;12.27;;
20114;SDS011;10218;42.874;25.320;2023-02-04T06:19:12;19.53;;;13.07;;
20114;SDS011;10218;42.874;25.320;2023-02-04T06:21:39;27.23;;;16.70;;
20114;SDS011;10218;42.874;25.320;2023-02-04T06:24:06;46.73;;;27.27;;
20114;SDS011;10218;42.874;25.320;2023-02-04T06:26:34;42.03;;;25.97;;
20114;SDS011;10218;42.874;25.320;2023-02-04T06:29:01;23.23;;;15.53;;
20114;SDS011;10218;42.874;25.320;2023-02-04T06:31:28;12.97;;;8.20;;
20114;SDS011;10218;42.874;25.320;2023-02-04T06:33:55;10.87;;;6.40;;
20114;SDS011;10218;42.874;25.320;2023-02-04T06:36:22;9.17;;;5.93;;
20114;SDS011;10218;42.874;25.320;2023-02-04T06:38:49;11.67;;;6.53;;
20114;SDS011;10218;42.874;25.320;2023-02-04T06:41:17;7.20;;;4.30;;
20114;SDS011;10218;42.874;25.320;2023-02-04T06:43:44;12.30;;;7.80;;
20114;SDS011;10218;42.874;25.320;2023-02-04T06:46:13;10.80;;;6.97;;
20114;SDS011;10218;42.874;25.320;2023-02-04T06:48:40;8.93;;;5.80;;
20114;SDS011;10218;42.874;25.320;2023-02-04T06:51:07;8.97;;;5.77;;
20114;SDS011;10218;42.874;25.320;2023-02-04T06:53:34;10.10;;;6.53;;
20114;SDS011;10218;42.874;25.320;2023-02-04T06:56:04;7.20;;;4.70;;
20114;SDS011;10218;42.874;25.320;2023-02-04T06:58:32;19.67;;;10.60;;
20114;SDS011;10218;42.874;25.320;2023-02-04T07:01:00;32.23;;;18.53;;
20114;SDS011;10218;42.874;25.320;2023-02-04T07:03:30;47.33;;;24.87;;
20114;SDS011;10218;42.874;25.320;2023-02-04T07:05:57;46.17;;;22.77;;
20114;SDS011;10218;42.874;25.320;2023-02-04T07:08:24;34.00;;;17.80;;
20114;SDS011;10218;42.874;25.320;2023-02-04T07:10:52;21.63;;;11.40;;
20114;SDS011;10218;42.874;25.320;2023-02-04T07:13:19;23.57;;;11.87;;
20114;SDS011;10218;42.874;25.320;2023-02-04T07:15:47;25.83;;;12.10;;
20114;SDS011;10218;42.874;25.320;2023-02-04T07:18:16;21.30;;;11.93;;
20114;SDS011;10218;42.874;25.320;2023-02-04T07:20:45;15.13;;;9.10;;
20114;SDS011;10218;42.874;25.320;2023-02-04T07:23:12;23.23;;;13.77;;
20114;SDS011;10218;42.874;25.320;2023-02-04T07:25:39;25.37;;;15.60;;
20114;SDS011;10218;42.874;25.320;2023-02-04T07:28:06;18.43;;;11.97;;
20114;SDS011;10218;42.874;25.320;2023-02-04T07:30:33;19.17;;;12.33;;
20114;SDS011;10218;42.874;25.320;2023-02-04T07:33:01;13.73;;;9.23;;
20114;SDS011;10218;42.874;25.320;2023-02-04T07:35:28;13.27;;;7.57;;
20114;SDS011;10218;42.874;25.320;2023-02-04T07:37:55;9.37;;;6.03;;
20114;SDS011;10218;42.874;25.320;2023-02-04T07:40:22;10.03;;;6.67;;
20114;SDS011;10218;42.874;25.320;2023-02-04T07:42:52;14.83;;;9.17;;
20114;SDS011;10218;42.874;25.320;2023-02-04T07:45:20;21.67;;;12.87;;
20114;SDS011;10218;42.874;25.320;2023-02-04T07:47:48;14.90;;;8.63;;
20114;SDS011;10218;42.874;25.320;2023-02-04T07:50:15;32.73;;;15.53;;
20114;SDS011;10218;42.874;25.320;2023-02-04T07:52:42;18.00;;;11.00;;
20114;SDS011;10218;42.874;25.320;2023-02-04T07:55:10;16.40;;;8.70;;
20114;SDS011;10218;42.874;25.320;2023-02-04T07:57:38;12.30;;;6.93;;
20114;SDS011;10218;42.874;25.320;2023-02-04T08:00:05;13.03;;;7.30;;
20114;SDS011;10218;42.874;25.320;2023-02-04T08:02:37;19.60;;;12.43;;
20114;SDS011;10218;42.874;25.320;2023-02-04T08:05:05;14.13;;;8.20;;
20114;SDS011;10218;42.874;25.320;2023-02-04T08:07:33;9.53;;;5.93;;
20114;SDS011;10218;42.874;25.320;2023-02-04T08:10:00;10.20;;;6.07;;
20114;SDS011;10218;42.874;25.320;2023-02-04T08:12:27;11.70;;;7.90;;
20114;SDS011;10218;42.874;25.320;2023-02-04T08:14:55;16.60;;;10.17;;
20114;SDS011;10218;42.874;25.320;2023-02-04T08:17:22;8.57;;;5.63;;
20114;SDS011;10218;42.874;25.320;2023-02-04T08:19:49;9.77;;;5.27;;
20114;SDS011;10218;42.874;25.320;2023-02-04T08:22:16;8.37;;;5.47;;
20114;SDS011;10218;42.874;25.320;2023-02-04T08:24:43;7.70;;;5.03;;
20114;SDS011;10218;42.874;25.320;2023-02-04T08:27:11;8.77;;;5.17;;
20114;SDS011;10218;42.874;25.320;2023-02-04T08:29:38;11.40;;;6.67;;
20114;SDS011;10218;42.874;25.320;2023-02-04T08:32:05;17.87;;;7.27;;
20114;SDS011;10218;42.874;25.320;2023-02-04T08:34:32;13.67;;;7.93;;
20114;SDS011;10218;42.874;25.320;2023-02-04T08:36:59;11.40;;;6.90;;
20114;SDS011;10218;42.874;25.320;2023-02-04T08:39:26;12.50;;;7.47;;
20114;SDS011;10218;42.874;25.320;2023-02-04T08:41:53;12.33;;;7.30;;
20114;SDS011;10218;42.874;25.320;2023-02-04T08:44:20;11.07;;;5.60;;
20114;SDS011;10218;42.874;25.320;2023-02-04T08:46:47;10.47;;;6.43;;
20114;SDS011;10218;42.874;25.320;2023-02-04T08:49:15;13.63;;;7.50;;
20114;SDS011;10218;42.874;25.320;2023-02-04T08:51:43;17.10;;;7.97;;
20114;SDS011;10218;42.874;25.320;2023-02-04T08:54:10;16.03;;;8.57;;
20114;SDS011;10218;42.874;25.320;2023-02-04T08:56:37;8.60;;;5.50;;
20114;SDS011;10218;42.874;25.320;2023-02-04T08:59:05;25.43;;;12.13;;
20114;SDS011;10218;42.874;25.320;2023-02-04T09:01:32;59.73;;;27.83;;
20114;SDS011;10218;42.874;25.320;2023-02-04T09:04:00;52.67;;;26.47;;
20114;SDS011;10218;42.874;25.320;2023-02-04T09:06:28;37.43;;;22.60;;
20114;SDS011;10218;42.874;25.320;2023-02-04T09:08:56;36.87;;;20.70;;
20114;SDS011;10218;42.874;25.320;2023-02-04T09:11:24;45.60;;;25.20;;
20114;SDS011;10218;42.874;25.320;2023-02-04T09:13:52;26.57;;;16.17;;
20114;SDS011;10218;42.874;25.320;2023-02-04T09:16:21;21.90;;;13.37;;
20114;SDS011;10218;42.874;25.320;2023-02-04T09:18:48;15.03;;;8.43;;
20114;SDS011;10218;42.874;25.320;2023-02-04T09:21:15;17.50;;;8.33;;
20114;SDS011;10218;42.874;25.320;2023-02-04T09:23:43;20.60;;;12.33;;
20114;SDS011;10218;42.874;25.320;2023-02-04T09:26:12;24.70;;;13.07;;
20114;SDS011;10218;42.874;25.320;2023-02-04T09:28:39;16.07;;;9.30;;
20114;SDS011;10218;42.874;25.320;2023-02-04T09:31:06;15.70;;;8.93;;
20114;SDS011;10218;42.874;25.320;2023-02-04T09:33:34;18.00;;;8.23;;
20114;SDS011;10218;42.874;25.320;2023-02-04T09:36:01;15.80;;;9.13;;
20114;SDS011;10218;42.874;25.320;2023-02-04T09:38:28;15.77;;;9.00;;
20114;SDS011;10218;42.874;25.320;2023-02-04T09:40:57;14.50;;;8.47;;
20114;SDS011;10218;42.874;25.320;2023-02-04T09:43:29;23.40;;;14.00;;
20114;SDS011;10218;42.874;25.320;2023-02-04T09:45:59;18.47;;;9.53;;
20114;SDS011;10218;42.874;25.320;2023-02-04T09:48:26;12.03;;;7.73;;
20114;SDS011;10218;42.874;25.320;2023-02-04T09:50:58;9.83;;;5.20;;
20114;SDS011;10218;42.874;25.320;2023-02-04T09:53:31;10.77;;;6.40;;
20114;SDS011;10218;42.874;25.320;2023-02-04T09:55:59;11.70;;;6.33;;
20114;SDS011;10218;42.874;25.320;2023-02-04T09:58:27;9.77;;;5.97;;
20114;SDS011;10218;42.874;25.320;2023-02-04T10:01:16;6.23;;;4.03;;
20114;SDS011;10218;42.874;25.320;2023-02-04T10:03:46;9.57;;;4.33;;
20114;SDS011;10218;42.874;25.320;2023-02-04T10:06:20;8.67;;;4.43;;
20114;SDS011;10218;42.874;25.320;2023-02-04T10:08:50;10.73;;;5.53;;
20114;SDS011;10218;42.874;25.320;2023-02-04T10:11:19;9.57;;;4.53;;
20114;SDS011;10218;42.874;25.320;2023-02-04T10:13:49;11.93;;;6.53;;
20114;SDS011;10218;42.874;25.320;2023-02-04T10:16:21;5.97;;;3.60;;
20114;SDS011;10218;42.874;25.320;2023-02-04T10:18:59;6.97;;;4.20;;
20114;SDS011;10218;42.874;25.320;2023-02-04T10:21:32;8.67;;;5.23;;
20114;SDS011;10218;42.874;25.320;2023-02-04T10:24:03;14.43;;;6.30;;
20114;SDS011;10218;42.874;25.320;2023-02-04T10:26:36;19.03;;;7.47;;
20114;SDS011;10218;42.874;25.320;2023-02-04T10:29:05;13.83;;;7.07;;
20114;SDS011;10218;42.874;25.320;2023-02-04T10:31:36;12.27;;;6.10;;
20114;SDS011;10218;42.874;25.320;2023-02-04T10:34:15;19.50;;;9.80;;
20114;SDS011;10218;42.874;25.320;2023-02-04T10:36:51;13.37;;;6.70;;
20114;SDS011;10218;42.874;25.320;2023-02-04T10:39:22;10.20;;;5.83;;
20114;SDS011;10218;42.874;25.320;2023-02-04T10:41:57;52.87;;;23.43;;
20114;SDS011;10218;42.874;25.320;2023-02-04T10:44:30;25.03;;;14.77;;
20114;SDS011;10218;42.874;25.320;2023-02-04T10:47:00;13.27;;;7.40;;
20114;SDS011;10218;42.874;25.320;2023-02-04T10:49:28;13.70;;;6.67;;
20114;SDS011;10218;42.874;25.320;2023-02-04T10:51:56;11.23;;;6.13;;
20114;SDS011;10218;42.874;25.320;2023-02-04T10:54:24;16.77;;;9.80;;
20114;SDS011;10218;42.874;25.320;2023-02-04T10:59:43;15.43;;;8.10;;
20114;SDS011;10218;42.874;25.320;2023-02-04T11:04:47;18.73;;;11.03;;
20114;SDS011;10218;42.874;25.320;2023-02-04T11:07:14;19.23;;;12.77;;
20114;SDS011;10218;42.874;25.320;2023-02-04T11:09:43;23.80;;;14.33;;
20114;SDS011;10218;42.874;25.320;2023-02-04T11:14:55;24.67;;;14.87;;
20114;SDS011;10218;42.874;25.320;2023-02-04T11:17:30;25.83;;;15.00;;
20114;SDS011;10218;42.874;25.320;2023-02-04T11:19:59;18.67;;;11.87;;
20114;SDS011;10218;42.874;25.320;2023-02-04T11:22:43;28.40;;;15.93;;
20114;SDS011;10218;42.874;25.320;2023-02-04T11:25:34;25.07;;;13.47;;
20114;SDS011;10218;42.874;25.320;2023-02-04T11:28:23;27.33;;;15.63;;
20114;SDS011;10218;42.874;25.320;2023-02-04T11:30:58;77.03;;;33.27;;
20114;SDS011;10218;42.874;25.320;2023-02-04T11:33:39;42.37;;;24.47;;
20114;SDS011;10218;42.874;25.320;2023-02-04T11:36:09;36.90;;;22.67;;
20114;SDS011;10218;42.874;25.320;2023-02-04T11:38:42;33.77;;;19.87;;
20114;SDS011;10218;42.874;25.320;2023-02-04T11:41:29;28.83;;;16.80;;
20114;SDS011;10218;42.874;25.320;2023-02-04T11:43:59;22.60;;;12.67;;
20114;SDS011;10218;42.874;25.320;2023-02-04T11:46:26;19.07;;;11.13;;
20114;SDS011;10218;42.874;25.320;2023-02-04T11:48:55;19.87;;;12.03;;
20114;SDS011;10218;42.874;25.320;2023-02-04T11:51:29;22.40;;;13.43;;
20114;SDS011;10218;42.874;25.320;2023-02-04T11:53:58;24.37;;;13.60;;
20114;SDS011;10218;42.874;25.320;2023-02-04T11:56:27;23.37;;;14.00;;
20114;SDS011;10218;42.874;25.320;2023-02-04T11:58:56;22.10;;;13.37;;
20114;SDS011;10218;42.874;25.320;2023-02-04T12:01:24;24.13;;;15.03;;
20114;SDS011;10218;42.874;25.320;2023-02-04T12:04:00;20.27;;;11.30;;
20114;SDS011;10218;42.874;25.320;2023-02-04T12:06:30;23.40;;;11.00;;
20114;SDS011;10218;42.874;25.320;2023-02-04T12:11:51;14.00;;;6.90;;
20114;SDS011;10218;42.874;25.320;2023-02-04T12:14:33;12.00;;;6.50;;
20114;SDS011;10218;42.874;25.320;2023-02-04T12:17:15;16.47;;;8.60;;
20114;SDS011;10218;42.874;25.320;2023-02-04T12:19:44;14.47;;;9.40;;
20114;SDS011;10218;42.874;25.320;2023-02-04T12:22:11;43.60;;;22.23;;
20114;SDS011;10218;42.874;25.320;2023-02-04T12:24:40;38.30;;;19.13;;
20114;SDS011;10218;42.874;25.320;2023-02-04T12:27:07;21.80;;;12.70;;
20114;SDS011;10218;42.874;25.320;2023-02-04T12:29:34;26.17;;;14.40;;
20114;SDS011;10218;42.874;25.320;2023-02-04T12:32:01;23.63;;;13.60;;
20114;SDS011;10218;42.874;25.320;2023-02-04T12:34:28;10.60;;;6.40;;
20114;SDS011;10218;42.874;25.320;2023-02-04T12:36:56;14.37;;;8.63;;
20114;SDS011;10218;42.874;25.320;2023-02-04T12:39:24;16.77;;;9.87;;
20114;SDS011;10218;42.874;25.320;2023-02-04T12:41:51;16.60;;;9.60;;
20114;SDS011;10218;42.874;25.320;2023-02-04T12:44:18;15.23;;;9.67;;
20114;SDS011;10218;42.874;25.320;2023-02-04T12:46:45;12.13;;;8.23;;
20114;SDS011;10218;42.874;25.320;2023-02-04T12:49:12;12.03;;;6.73;;
20114;SDS011;10218;42.874;25.320;2023-02-04T12:51:39;8.57;;;2.87;;
20114;SDS011;10218;42.874;25.320;2023-02-04T12:54:06;9.17;;;5.60;;
20114;SDS011;10218;42.874;25.320;2023-02-04T12:56:33;5.27;;;3.03;;
20114;SDS011;10218;42.874;25.320;2023-02-04T12:59:01;28.13;;;15.33;;
20114;SDS011;10218;42.874;25.320;2023-02-04T13:01:29;7.03;;;4.10;;
20114;SDS011;10218;42.874;25.320;2023-02-04T13:03:56;5.40;;;3.80;;
20114;SDS011;10218;42.874;25.320;2023-02-04T13:06:23;7.60;;;4.63;;
20114;SDS011;10218;42.874;25.320;2023-02-04T13:08:51;3.40;;;2.33;;
20114;SDS011;10218;42.874;25.320;2023-02-04T13:11:18;4.47;;;3.00;;
20114;SDS011;10218;42.874;25.320;2023-02-04T13:13:45;4.50;;;3.10;;
20114;SDS011;10218;42.874;25.320;2023-02-04T13:16:12;8.20;;;5.20;;
20114;SDS011;10218;42.874;25.320;2023-02-04T13:18:40;5.60;;;2.70;;
20114;SDS011;10218;42.874;25.320;2023-02-04T13:21:07;6.60;;;3.30;;
20114;SDS011;10218;42.874;25.320;2023-02-04T13:23:34;4.27;;;3.00;;
20114;SDS011;10218;42.874;25.320;2023-02-04T13:26:02;4.77;;;3.40;;
20114;SDS011;10218;42.874;25.320;2023-02-04T13:28:29;8.53;;;4.80;;
20114;SDS011;10218;42.874;25.320;2023-02-04T13:30:56;5.03;;;2.90;;
20114;SDS011;10218;42.874;25.320;2023-02-04T13:33:23;10.43;;;6.27;;
20114;SDS011;10218;42.874;25.320;2023-02-04T13:35:50;5.27;;;3.00;;
20114;SDS011;10218;42.874;25.320;2023-02-04T13:38:17;54.27;;;34.90;;
20114;SDS011;10218;42.874;25.320;2023-02-04T13:40:44;8.43;;;4.27;;
20114;SDS011;10218;42.874;25.320;2023-02-04T13:43:11;6.13;;;3.70;;
20114;SDS011;10218;42.874;25.320;2023-02-04T13:45:38;7.30;;;3.30;;
20114;SDS011;10218;42.874;25.320;2023-02-04T13:48:06;8.27;;;5.23;;
20114;SDS011;10218;42.874;25.320;2023-02-04T13:50:33;6.10;;;3.40;;
20114;SDS011;10218;42.874;25.320;2023-02-04T13:53:00;6.20;;;4.03;;
20114;SDS011;10218;42.874;25.320;2023-02-04T13:55:27;6.50;;;4.00;;
20114;SDS011;10218;42.874;25.320;2023-02-04T13:57:54;5.87;;;3.90;;
20114;SDS011;10218;42.874;25.320;2023-02-04T14:00:21;7.47;;;4.93;;
20114;SDS011;10218;42.874;25.320;2023-02-04T14:02:49;7.23;;;4.27;;
20114;SDS011;10218;42.874;25.320;2023-02-04T14:05:16;7.40;;;5.23;;
20114;SDS011;10218;42.874;25.320;2023-02-04T14:07:43;8.67;;;4.30;;
20114;SDS011;10218;42.874;25.320;2023-02-04T14:10:10;9.90;;;4.67;;
20114;SDS011;10218;42.874;25.320;2023-02-04T14:12:37;8.73;;;4.93;;
20114;SDS011;10218;42.874;25.320;2023-02-04T14:15:04;9.27;;;5.40;;
20114;SDS011;10218;42.874;25.320;2023-02-04T14:17:32;7.77;;;4.77;;
20114;SDS011;10218;42.874;25.320;2023-02-04T14:19:59;11.93;;;6.30;;
20114;SDS011;10218;42.874;25.320;2023-02-04T14:22:26;10.03;;;5.70;;
20114;SDS011;10218;42.874;25.320;2023-02-04T14:24:53;8.27;;;5.20;;
20114;SDS011;10218;42.874;25.320;2023-02-04T14:27:21;10.70;;;6.13;;
20114;SDS011;10218;42.874;25.320;2023-02-04T14:29:48;11.50;;;7.27;;
20114;SDS011;10218;42.874;25.320;2023-02-04T14:32:16;20.87;;;12.40;;
20114;SDS011;10218;42.874;25.320;2023-02-04T14:34:43;23.90;;;16.70;;
20114;SDS011;10218;42.874;25.320;2023-02-04T14:37:10;55.73;;;33.37;;
20114;SDS011;10218;42.874;25.320;2023-02-04T14:39:37;179.30;;;76.77;;
20114;SDS011;10218;42.874;25.320;2023-02-04T14:42:04;101.80;;;50.37;;
20114;SDS011;10218;42.874;25.320;2023-02-04T14:44:35;47.97;;;25.77;;
20114;SDS011;10218;42.874;25.320;2023-02-04T14:47:02;25.30;;;15.87;;
20114;SDS011;10218;42.874;25.320;2023-02-04T14:49:29;37.87;;;24.67;;
20114;SDS011;10218;42.874;25.320;2023-02-04T14:51:58;31.67;;;17.60;;
20114;SDS011;10218;42.874;25.320;2023-02-04T14:54:26;23.27;;;12.23;;
20114;SDS011;10218;42.874;25.320;2023-02-04T14:56:53;16.00;;;9.07;;
20114;SDS011;10218;42.874;25.320;2023-02-04T14:59:20;20.83;;;10.43;;
20114;SDS011;10218;42.874;25.320;2023-02-04T15:01:48;10.37;;;6.47;;
20114;SDS011;10218;42.874;25.320;2023-02-04T15:04:15;8.77;;;5.30;;
20114;SDS011;10218;42.874;25.320;2023-02-04T15:06:44;9.57;;;5.43;;
20114;SDS011;10218;42.874;25.320;2023-02-04T15:09:12;43.40;;;22.97;;
20114;SDS011;10218;42.874;25.320;2023-02-04T15:11:39;14.43;;;6.47;;
20114;SDS011;10218;42.874;25.320;2023-02-04T15:14:06;13.30;;;7.30;;
20114;SDS011;10218;42.874;25.320;2023-02-04T15:16:33;11.07;;;6.07;;
20114;SDS011;10218;42.874;25.320;2023-02-04T15:19:01;7.40;;;5.10;;
20114;SDS011;10218;42.874;25.320;2023-02-04T15:21:29;13.77;;;7.23;;
20114;SDS011;10218;42.874;25.320;2023-02-04T15:23:57;8.83;;;4.57;;
20114;SDS011;10218;42.874;25.320;2023-02-04T15:26:24;10.10;;;5.80;;
20114;SDS011;10218;42.874;25.320;2023-02-04T15:29:09;11.93;;;6.50;;
20114;SDS011;10218;42.874;25.320;2023-02-04T15:31:55;15.97;;;9.50;;
20114;SDS011;10218;42.874;25.320;2023-02-04T15:34:41;10.37;;;5.40;;
20114;SDS011;10218;42.874;25.320;2023-02-04T15:37:09;16.97;;;9.73;;
20114;SDS011;10218;42.874;25.320;2023-02-04T15:39:54;15.07;;;8.13;;
20114;SDS011;10218;42.874;25.320;2023-02-04T15:42:42;11.23;;;6.80;;
20114;SDS011;10218;42.874;25.320;2023-02-04T15:45:10;10.80;;;6.20;;
20114;SDS011;10218;42.874;25.320;2023-02-04T15:47:37;9.63;;;5.77;;
20114;SDS011;10218;42.874;25.320;2023-02-04T15:50:04;20.43;;;11.63;;
20114;SDS011;10218;42.874;25.320;2023-02-04T15:52:35;10.73;;;6.73;;
20114;SDS011;10218;42.874;25.320;2023-02-04T15:55:02;11.67;;;7.07;;
20114;SDS011;10218;42.874;25.320;2023-02-04T15:57:30;15.83;;;8.87;;
20114;SDS011;10218;42.874;25.320;2023-02-04T15:59:58;12.30;;;7.77;;
20114;SDS011;10218;42.874;25.320;2023-02-04T16:02:31;13.93;;;8.63;;
20114;SDS011;10218;42.874;25.320;2023-02-04T16:05:19;9.03;;;6.10;;
20114;SDS011;10218;42.874;25.320;2023-02-04T16:07:46;9.73;;;6.47;;
20114;SDS011;10218;42.874;25.320;2023-02-04T16:10:15;12.73;;;6.87;;
20114;SDS011;10218;42.874;25.320;2023-02-04T16:12:44;14.67;;;9.13;;
20114;SDS011;10218;42.874;25.320;2023-02-04T16:15:12;16.17;;;9.70;;
20114;SDS011;10218;42.874;25.320;2023-02-04T16:17:41;11.03;;;7.03;;
20114;SDS011;10218;42.874;25.320;2023-02-04T16:20:09;12.93;;;7.33;;
20114;SDS011;10218;42.874;25.320;2023-02-04T16:22:36;8.53;;;4.77;;
20114;SDS011;10218;42.874;25.320;2023-02-04T16:25:03;7.47;;;4.40;;
20114;SDS011;10218;42.874;25.320;2023-02-04T16:27:31;6.70;;;4.30;;
20114;SDS011;10218;42.874;25.320;2023-02-04T16:30:00;7.40;;;4.70;;
20114;SDS011;10218;42.874;25.320;2023-02-04T16:32:27;9.37;;;6.00;;
20114;SDS011;10218;42.874;25.320;2023-02-04T16:34:55;8.40;;;5.50;;
20114;SDS011;10218;42.874;25.320;2023-02-04T16:37:24;8.30;;;5.50;;
20114;SDS011;10218;42.874;25.320;2023-02-04T16:39:52;8.60;;;5.73;;
20114;SDS011;10218;42.874;25.320;2023-02-04T16:42:19;10.33;;;6.33;;
20114;SDS011;10218;42.874;25.320;2023-02-04T16:44:47;11.93;;;6.40;;
20114;SDS011;10218;42.874;25.320;2023-02-04T16:47:14;12.43;;;7.50;;
20114;SDS011;10218;42.874;25.320;2023-02-04T16:49:43;14.47;;;8.93;;
20114;SDS011;10218;42.874;25.320;2023-02-04T16:52:10;16.80;;;9.33;;
20114;SDS011;10218;42.874;25.320;2023-02-04T16:54:38;16.23;;;8.70;;
20114;SDS011;10218;42.874;25.320;2023-02-04T16:57:06;14.70;;;9.40;;
20114;SDS011;10218;42.874;25.320;2023-02-04T16:59:34;14.47;;;9.47;;
20114;SDS011;10218;42.874;25.320;2023-02-04T17:02:03;17.13;;;10.97;;
20114;SDS011;10218;42.874;25.320;2023-02-04T17:04:32;17.00;;;11.00;;
20114;SDS011;10218;42.874;25.320;2023-02-04T17:07:00;16.33;;;10.40;;
20114;SDS011;10218;42.874;25.320;2023-02-04T17:09:27;14.80;;;9.47;;
20114;SDS011;10218;42.874;25.320;2023-02-04T17:11:56;19.70;;;12.63;;
20114;SDS011;10218;42.874;25.320;2023-02-04T17:14:24;11.47;;;7.60;;
20114;SDS011;10218;42.874;25.320;2023-02-04T17:16:51;12.13;;;7.93;;
20114;SDS011;10218;42.874;25.320;2023-02-04T17:19:18;15.40;;;9.80;;
20114;SDS011;10218;42.874;25.320;2023-02-04T17:21:46;16.47;;;10.20;;
20114;SDS011;10218;42.874;25.320;2023-02-04T17:24:14;18.90;;;11.60;;
20114;SDS011;10218;42.874;25.320;2023-02-04T17:26:42;15.53;;;10.57;;
20114;SDS011;10218;42.874;25.320;2023-02-04T17:29:10;13.40;;;8.10;;
20114;SDS011;10218;42.874;25.320;2023-02-04T17:31:38;15.53;;;10.07;;
20114;SDS011;10218;42.874;25.320;2023-02-04T17:34:10;18.00;;;10.37;;
20114;SDS011;10218;42.874;25.320;2023-02-04T17:36:37;20.03;;;12.73;;
20114;SDS011;10218;42.874;25.320;2023-02-04T17:39:04;21.53;;;12.53;;
20114;SDS011;10218;42.874;25.320;2023-02-04T17:41:33;33.37;;;19.77;;
20114;SDS011;10218;42.874;25.320;2023-02-04T17:44:00;50.90;;;25.20;;
20114;SDS011;10218;42.874;25.320;2023-02-04T17:46:28;27.47;;;16.37;;
20114;SDS011;10218;42.874;25.320;2023-02-04T17:48:58;81.37;;;36.57;;
20114;SDS011;10218;42.874;25.320;2023-02-04T17:51:25;213.60;;;91.33;;
20114;SDS011;10218;42.874;25.320;2023-02-04T17:53:52;102.20;;;46.73;;
20114;SDS011;10218;42.874;25.320;2023-02-04T17:56:20;46.00;;;24.53;;
20114;SDS011;10218;42.874;25.320;2023-02-04T17:58:47;30.47;;;18.03;;
20114;SDS011;10218;42.874;25.320;2023-02-04T18:01:16;24.63;;;15.60;;
20114;SDS011;10218;42.874;25.320;2023-02-04T18:03:44;31.90;;;21.23;;
20114;SDS011;10218;42.874;25.320;2023-02-04T18:06:21;31.77;;;19.00;;
20114;SDS011;10218;42.874;25.320;2023-02-04T18:08:53;23.93;;;14.30;;
20114;SDS011;10218;42.874;25.320;2023-02-04T18:11:30;18.97;;;12.10;;
20114;SDS011;10218;42.874;25.320;2023-02-04T18:14:17;18.20;;;11.47;;
20114;SDS011;10218;42.874;25.320;2023-02-04T18:16:49;19.47;;;12.53;;
20114;SDS011;10218;42.874;25.320;2023-02-04T18:19:31;18.67;;;11.97;;
20114;SDS011;10218;42.874;25.320;2023-02-04T18:22:04;17.73;;;11.40;;
20114;SDS011;10218;42.874;25.320;2023-02-04T18:24:39;19.83;;;12.20;;
20114;SDS011;10218;42.874;25.320;2023-02-04T18:29:51;35.00;;;20.90;;
20114;SDS011;10218;42.874;25.320;2023-02-04T18:32:25;46.33;;;26.00;;
20114;SDS011;10218;42.874;25.320;2023-02-04T18:34:59;72.62;;;44.33;;